Charleston, SC (29405)

7:41 PM EDT on October 31, 2014 (GMT -0400)
Park Circle | Change Station
CLOSE
Current Station
Personal Weather Station
Location: North Charleston, SC
Elevation: 20 ft
Nearby Weather Stations

Elev 20 ft 32.89 °N, 79.99 °W | Updated 12 seconds ago

Clear
Clear
56.1 °F
Feels Like 56.1 °F
N
0.0
Wind Variable Wind from North
Gusts 0.0 mph

Today
High -- | Low -- °F
--% Chance of Precip.
Yesterday
High -- | Low -- °F
Precip. -- in
7:36 AM 6:29 PM
First Quarter, 60% visible
Pressure 29.80 in
Visibility 10.0 miles
Clouds Few 7000 ft
Dew Point 50 °F
Humidity 81%
Rainfall 0.00 in
Snow Depth Not available.
UV 0 out of 12
Pollen 3.50 out of 12
Air Quality Not available.
Flu Activity Not available.
METAR KCHS 312256Z 00000KT 10SM FEW070 18/07 A2980 RMK AO2 SLP090 T01780067

More Conditions Fewer Conditions

Pressure 29.80 in
Visibility 10.0 miles
Clouds Few 7000 ft
Dew Point 50 °F
Humidity 81%
Rainfall 0.00 in
Snow Depth Not available.
UV 0 out of 12
Pollen 3.50 out of 12
Air Quality Not available.
Flu Activity Not available.
METAR KCHS 312256Z 00000KT 10SM FEW070 18/07 A2980 RMK AO2 SLP090 T01780067

More Conditions Fewer Conditions

10-Day Weather Forecast

Almanac

Astronomy

Oct. 31, 2014 Rise Set
Actual Time
Civil Twilight
Nautical Twilight
Astronomical Twilight
Moon
Length of Visible Light
Length of Day
Tomorrow will be .
, % of the Moon is Illuminated

Today's Extremes

State Highs State Lows

Community

WunderPhotos

Upload Photos

1,766,786 photos uploaded!

WunderBlogs® & News

Nearby

Air Quality

  Air Quality AQ Index Pollutant
Not available.

Snow Depth

Station Depth Elevation

Earthquake Activity

City Distance Mag. Time & Date
Minimum magnitude displayed is 2.5.

Coastal Water Temperatures

Place Temperature

Nearby Weather Stations